Time;durP1;ratioP1;P1;durP2;ratioP2;P2;SDS_P1;SDS_P2;PMS_P1;PMS_P2;Temp;Humidity;BMP_temperature;BMP_pressure;BME280_temperature;BME280_humidity;BME280_pressure;Samples;Min_cycle;Max_cycle;Signal;HPM_P1;HPM_P2
2022/01/10 00:01:31;;;;;;;;;;;13.70;70.80;;;;;;5169511;28;20077;-31
2022/01/10 00:04:02;;;;;;;146.13;86.50;;;13.60;70.50;;;;;;5168429;28;20363;-31
2022/01/10 00:06:33;;;;;;;126.93;76.47;;;13.60;70.50;;;;;;5168312;28;20463;-31
2022/01/10 00:09:04;;;;;;;143.87;83.80;;;13.60;70.30;;;;;;5168108;28;20038;-29
2022/01/10 00:11:35;;;;;;;107.60;67.63;;;13.50;70.90;;;;;;5167802;28;20050;-30
2022/01/10 00:14:06;;;;;;;107.07;71.07;;;13.50;70.20;;;;;;5168169;28;20050;-30
2022/01/10 00:16:37;;;;;;;140.40;86.07;;;13.60;70.30;;;;;;5168344;28;20395;-30
2022/01/10 00:19:08;;;;;;;135.97;82.90;;;13.50;70.10;;;;;;5168331;28;20484;-30
2022/01/10 00:21:39;;;;;;;122.93;76.00;;;13.50;70.10;;;;;;5168226;28;20100;-30
2022/01/10 00:24:10;;;;;;;79.80;55.40;;;13.50;70.10;;;;;;5167971;28;20085;-29
2022/01/10 00:26:41;;;;;;;99.40;62.10;;;13.50;70.10;;;;;;5166690;28;20078;-30
2022/01/10 00:29:12;;;;;;;90.97;61.33;;;13.40;70.00;;;;;;5167980;28;20104;-30
2022/01/10 00:31:43;;;;;;;86.53;57.10;;;13.50;70.10;;;;;;5167892;28;20500;-30
2022/01/10 00:34:14;;;;;;;78.40;54.43;;;13.50;69.90;;;;;;5168245;28;20169;-31
2022/01/10 00:36:45;;;;;;;104.77;69.37;;;13.40;69.90;;;;;;5166764;28;20246;-30
2022/01/10 00:39:16;;;;;;;134.13;81.50;;;13.40;70.00;;;;;;5168440;28;20134;-30
2022/01/10 00:41:46;;;;;;;108.07;70.43;;;13.40;70.10;;;;;;5167566;28;20399;-29
2022/01/10 00:44:24;;;;;;;92.50;61.13;;;13.40;70.10;;;;;;5167874;28;20093;-30
2022/01/10 00:46:55;;;;;;;91.87;61.17;;;13.40;70.20;;;;;;5166522;28;20051;-29
2022/01/10 00:49:27;;;;;;;81.53;56.73;;;13.40;70.10;;;;;;5167364;28;20042;-31
2022/01/10 00:51:57;;;;;;;66.20;49.00;;;13.40;70.10;;;;;;5167656;28;20090;-30
2022/01/10 00:54:28;;;;;;;62.33;46.10;;;13.30;69.90;;;;;;5167572;28;20500;-30
2022/01/10 00:56:59;;;;;;;79.70;54.87;;;13.30;69.80;;;;;;5167512;28;20079;-29
2022/01/10 00:59:30;;;;;;;82.63;57.23;;;13.30;69.80;;;;;;5167309;28;20082;-29
2022/01/10 01:02:01;;;;;;;79.20;56.23;;;13.30;69.90;;;;;;5167315;28;20066;-29
2022/01/10 01:04:32;;;;;;;84.10;61.10;;;13.30;70.20;;;;;;5166266;28;20045;-29
2022/01/10 01:07:03;;;;;;;110.80;72.83;;;13.20;71.20;;;;;;5167240;28;20046;-31
2022/01/10 01:09:34;;;;;;;114.10;77.40;;;13.30;71.50;;;;;;5167496;28;20528;-29
2022/01/10 01:12:14;;;;;;;73.63;53.07;;;13.20;71.20;;;;;;5165892;28;20126;-30
2022/01/10 01:17:34;;;;;;;77.63;56.00;;;13.30;71.00;;;;;;5167208;28;20105;-29
2022/01/10 01:20:20;;;;;;;68.73;51.10;;;13.30;70.90;;;;;;5167285;28;20133;-31
2022/01/10 01:25:40;;;;;;;70.83;50.60;;;13.30;70.70;;;;;;5166838;28;20062;-30
2022/01/10 01:28:11;;;;;;;78.50;55.57;;;13.30;70.60;;;;;;5166532;28;20105;-29
2022/01/10 01:30:43;;;;;;;72.67;52.77;;;13.20;70.60;;;;;;5166789;28;20061;-29
2022/01/10 01:33:15;;;;;;;72.57;51.77;;;13.20;70.50;;;;;;5149414;28;20047;-31
2022/01/10 01:35:47;;;;;;;71.93;52.55;;;13.20;70.40;;;;;;5165545;28;20050;-31
2022/01/10 01:38:18;;;;;;;86.20;61.80;;;13.20;70.40;;;;;;5165970;28;20050;-30
2022/01/10 01:40:57;;;;;;;75.33;55.67;;;13.20;70.40;;;;;;5167427;28;20046;-30
2022/01/10 01:43:28;;;;;;;88.90;63.00;;;13.20;70.40;;;;;;5166820;28;20070;-30
2022/01/10 01:45:59;;;;;;;82.50;59.03;;;13.20;70.40;;;;;;5167193;28;20089;-29
2022/01/10 01:48:29;;;;;;;85.67;61.53;;;13.20;70.40;;;;;;5166653;28;20479;-29
2022/01/10 01:51:02;;;;;;;78.50;56.93;;;13.20;70.40;;;;;;5166728;28;20042;-31
2022/01/10 01:53:33;;;;;;;78.57;56.53;;;13.20;70.40;;;;;;5165553;28;20068;-29
2022/01/10 01:56:05;;;;;;;85.33;60.00;;;13.10;70.30;;;;;;5166646;28;20483;-30
2022/01/10 01:58:36;;;;;;;78.07;58.00;;;13.10;70.20;;;;;;5166952;28;20039;-29
2022/01/10 02:01:08;;;;;;;76.57;57.10;;;13.10;70.30;;;;;;5165501;28;20070;-29
2022/01/10 02:03:38;;;;;;;85.50;60.63;;;13.10;70.30;;;;;;5166603;28;20046;-30
2022/01/10 02:06:09;;;;;;;83.97;58.87;;;13.10;70.30;;;;;;5166340;28;20130;-29
2022/01/10 02:08:41;;;;;;;76.23;56.07;;;13.10;70.40;;;;;;5165100;28;20118;-30
2022/01/10 02:11:13;;;;;;;74.83;57.00;;;13.10;70.40;;;;;;5165372;28;20058;-30
2022/01/10 02:13:44;;;;;;;74.17;54.53;;;13.10;70.40;;;;;;5166031;28;20050;-31
2022/01/10 02:16:21;;;;;;;73.17;52.63;;;13.10;70.70;;;;;;5166596;28;20600;-29
2022/01/10 02:18:51;;;;;;;85.90;60.37;;;13.00;71.60;;;;;;5165077;28;20054;-30
2022/01/10 02:21:23;;;;;;;85.73;61.90;;;13.10;71.70;;;;;;5166358;28;20077;-29
2022/01/10 02:23:54;;;;;;;85.50;60.20;;;13.10;71.40;;;;;;5165007;28;20042;-30
2022/01/10 02:26:25;;;;;;;83.17;57.83;;;13.00;71.10;;;;;;5165995;28;20070;-30
2022/01/10 02:28:56;;;;;;;79.87;54.67;;;13.00;71.00;;;;;;5166283;28;20192;-30
2022/01/10 02:31:27;;;;;;;76.17;54.57;;;13.00;70.80;;;;;;5166461;28;20085;-29
2022/01/10 02:33:58;;;;;;;68.70;52.00;;;13.00;70.70;;;;;;5168669;28;20499;-30
2022/01/10 02:36:29;;;;;;;71.23;51.43;;;13.10;70.70;;;;;;5170109;28;20050;-31
2022/01/10 02:39:02;;;;;;;75.20;53.13;;;13.00;70.70;;;;;;5170188;28;20073;-29
2022/01/10 02:41:35;;;;;;;67.30;48.80;;;13.10;70.60;;;;;;5170724;28;20480;-29
2022/01/10 02:44:16;;;;;;;62.00;47.53;;;13.10;70.50;;;;;;5168743;28;20105;-30
2022/01/10 02:46:47;;;;;;;60.47;45.97;;;13.10;70.40;;;;;;5170231;28;20491;-31
2022/01/10 02:49:27;;;;;;;60.90;47.80;;;13.00;70.20;;;;;;5168968;28;20042;-31
2022/01/10 02:51:58;;;;;;;60.10;45.67;;;13.10;70.10;;;;;;5169954;28;20042;-30
2022/01/10 02:54:29;;;;;;;60.13;45.70;;;13.10;70.10;;;;;;5169000;28;20129;-30
2022/01/10 02:57:00;;;;;;;63.13;47.37;;;13.00;70.00;;;;;;5169949;28;20050;-31
2022/01/10 02:59:31;;;;;;;62.97;48.27;;;13.00;70.00;;;;;;5170394;28;20109;-31
2022/01/10 03:02:03;;;;;;;63.20;47.20;;;13.00;69.90;;;;;;5169982;28;20468;-29
2022/01/10 03:04:34;;;;;;;60.60;47.57;;;13.00;69.90;;;;;;5135637;28;20058;-29
2022/01/10 03:07:05;;;;;;;57.63;47.13;;;13.10;69.80;;;;;;5168573;28;20045;-30
2022/01/10 03:09:36;;;;;;;68.17;49.63;;;13.00;69.80;;;;;;5169564;28;20499;-30
2022/01/10 03:12:09;;;;;;;72.63;52.27;;;13.00;69.80;;;;;;5169750;28;20121;-30
2022/01/10 03:14:40;;;;;;;75.78;53.65;;;13.00;69.80;;;;;;5169132;28;20060;-31
2022/01/10 03:17:11;;;;;;;70.07;52.03;;;13.00;69.80;;;;;;5135516;28;20064;-31
2022/01/10 03:19:42;;;;;;;67.73;49.03;;;13.00;69.60;;;;;;5152076;28;20092;-30
2022/01/10 03:22:14;;;;;;;78.33;56.67;;;13.00;69.80;;;;;;5169249;28;20495;-31
2022/01/10 03:24:45;;;;;;;81.27;58.30;;;13.00;69.60;;;;;;5168374;28;20085;-30
2022/01/10 03:27:16;;;;;;;82.90;57.77;;;13.00;69.90;;;;;;5169563;28;20046;-31
2022/01/10 03:29:46;;;;;;;86.13;60.83;;;12.90;70.40;;;;;;5167976;28;20050;-29
2022/01/10 03:32:18;;;;;;;79.80;55.37;;;12.90;71.20;;;;;;5168922;28;20053;-30
2022/01/10 03:34:48;;;;;;;97.83;64.30;;;12.90;71.10;;;;;;5169043;28;20043;-29
2022/01/10 03:37:20;;;;;;;90.00;59.90;;;13.00;70.80;;;;;;5169136;28;20517;-30
2022/01/10 03:39:51;;;;;;;67.33;48.27;;;13.00;70.70;;;;;;5169533;28;20054;-31
2022/01/10 03:42:22;;;;;;;92.77;61.17;;;13.00;70.30;;;;;;5168403;28;20445;-31
2022/01/10 03:44:53;;;;;;;92.83;62.90;;;13.00;70.20;;;;;;5166903;28;20077;-29
2022/01/10 03:47:24;;;;;;;81.77;55.37;;;13.00;70.10;;;;;;5168728;28;20125;-29
2022/01/10 03:49:55;;;;;;;101.10;70.37;;;13.00;70.10;;;;;;5168807;28;20429;-30
2022/01/10 03:52:27;;;;;;;70.97;51.47;;;13.00;70.00;;;;;;5167297;28;20078;-29
2022/01/10 03:54:58;;;;;;;57.77;44.03;;;13.00;70.00;;;;;;5169058;28;20125;-30
2022/01/10 03:57:29;;;;;;;59.53;45.33;;;13.00;69.90;;;;;;5167652;28;20121;-29
2022/01/10 04:00:00;;;;;;;59.03;45.17;;;13.00;69.90;;;;;;5168668;28;20121;-30
2022/01/10 04:02:32;;;;;;;71.70;51.70;;;13.00;69.70;;;;;;5168741;28;20050;-29
2022/01/10 04:05:04;;;;;;;73.00;52.13;;;13.00;69.90;;;;;;5118517;28;20470;-30
2022/01/10 04:07:35;;;;;;;79.97;56.30;;;13.00;69.70;;;;;;5167164;28;20077;-31
2022/01/10 04:10:07;;;;;;;73.70;53.00;;;13.00;69.70;;;;;;5168649;28;20057;-29
2022/01/10 04:12:38;;;;;;;73.83;54.10;;;13.00;69.60;;;;;;5168279;28;20133;-29
2022/01/10 04:15:09;;;;;;;69.27;53.10;;;12.90;69.50;;;;;;5168162;28;20133;-31
2022/01/10 04:17:40;;;;;;;69.80;52.50;;;13.00;69.60;;;;;;5167058;28;20058;-29
2022/01/10 04:20:11;;;;;;;68.00;49.80;;;12.90;69.50;;;;;;5168496;28;20097;-30
2022/01/10 04:22:42;;;;;;;56.20;42.60;;;13.00;69.70;;;;;;5167397;28;20120;-30
2022/01/10 04:25:13;;;;;;;55.60;44.20;;;13.00;69.60;;;;;;5168128;28;20046;-30
2022/01/10 04:27:44;;;;;;;54.33;42.67;;;12.90;69.60;;;;;;5168000;28;20081;-30
2022/01/10 04:30:15;;;;;;;54.73;42.23;;;12.90;69.80;;;;;;5167121;28;20077;-29
2022/01/10 04:32:46;;;;;;;58.90;43.30;;;13.00;69.80;;;;;;5167817;28;20059;-30
2022/01/10 04:35:17;;;;;;;57.57;42.40;;;13.10;69.60;;;;;;5167696;28;20089;-31
2022/01/10 04:37:48;;;;;;;54.43;40.87;;;13.20;69.50;;;;;;5167887;28;20540;-31
2022/01/10 04:40:19;;;;;;;53.47;43.13;;;13.20;69.30;;;;;;5166063;28;20125;-31
2022/01/10 04:42:50;;;;;;;56.23;44.37;;;13.40;70.10;;;;;;5166123;28;20440;-30
2022/01/10 04:45:21;;;;;;;53.27;41.47;;;13.70;70.30;;;;;;5166008;28;20044;-30
2022/01/10 04:47:52;;;;;;;58.40;44.03;;;12.30;71.20;;;;;;5167019;28;20122;-28
2022/01/10 04:53:06;;;;;;;61.60;45.33;;;10.00;75.30;;;;;;5165325;28;20404;-28
2022/01/10 04:55:37;;;;;;;62.43;45.30;;;9.50;76.70;;;;;;5166395;28;20568;-28
2022/01/10 04:58:09;;;;;;;;;;;9.20;77.30;;;;;;5167902;28;20050;-28
2022/01/10 05:00:40;;;;;;;54.93;42.50;;;9.00;78.00;;;;;;5167522;28;19925;-27
2022/01/10 05:03:12;;;;;;;53.67;40.73;;;8.80;78.80;;;;;;5166363;28;20536;-28
2022/01/10 05:05:43;;;;;;;72.77;50.03;;;8.60;78.90;;;;;;5162690;28;20125;-29
2022/01/10 05:08:14;;;;;;;68.47;50.57;;;8.60;80.20;;;;;;5165855;28;20403;-31
2022/01/10 05:10:45;;;;;;;87.53;77.77;;;9.30;78.80;;;;;;5166081;28;20046;-30
2022/01/10 05:13:16;;;;;;;64.20;51.13;;;10.10;77.20;;;;;;5166577;28;20042;-28
2022/01/10 05:15:49;;;;;;;59.37;46.03;;;10.70;75.70;;;;;;5167747;28;20049;-30
2022/01/10 05:18:21;;;;;;;60.88;48.58;;;11.20;74.50;;;;;;5167196;28;20146;-32
2022/01/10 05:20:52;;;;;;;63.47;53.97;;;11.60;73.70;;;;;;5149574;28;20101;-31
2022/01/10 05:23:23;;;;;;;56.63;47.00;;;11.90;73.20;;;;;;5165804;28;20050;-30
2022/01/10 05:25:54;;;;;;;52.40;43.20;;;12.20;72.60;;;;;;5165849;28;20101;-30
2022/01/10 05:28:25;;;;;;;48.57;40.53;;;12.30;72.20;;;;;;5166777;28;20050;-29
2022/01/10 05:31:00;;;;;;;48.60;38.90;;;12.50;71.90;;;;;;5166428;28;20046;-30
2022/01/10 05:33:31;;;;;;;48.50;38.67;;;12.60;72.30;;;;;;5166926;28;20129;-30
2022/01/10 05:36:02;;;;;;;47.90;37.83;;;12.70;71.10;;;;;;5166852;28;20474;-30
2022/01/10 05:38:33;;;;;;;48.93;40.27;;;12.70;71.40;;;;;;5165183;28;20057;-30
2022/01/10 05:41:04;;;;;;;47.83;39.30;;;12.90;71.30;;;;;;5163039;28;20459;-29
2022/01/10 05:43:36;;;;;;;47.03;37.67;;;12.90;71.10;;;;;;5164088;28;20113;-31
2022/01/10 05:46:08;;;;;;;47.93;38.10;;;12.90;70.80;;;;;;5166117;28;20042;-29
2022/01/10 05:48:46;;;;;;;48.67;38.35;;;12.90;70.90;;;;;;5166022;28;20067;-29
2022/01/10 05:51:16;;;;;;;49.97;38.60;;;13.00;70.70;;;;;;5165065;28;20046;-29
2022/01/10 05:53:48;;;;;;;50.10;39.20;;;13.00;70.50;;;;;;5166082;28;20054;-31
2022/01/10 05:56:19;;;;;;;55.90;47.60;;;13.00;70.50;;;;;;5166601;28;20047;-29
2022/01/10 05:58:50;;;;;;;49.97;40.47;;;13.00;70.40;;;;;;5165470;28;20455;-28
2022/01/10 06:01:21;;;;;;;50.57;38.63;;;13.00;70.00;;;;;;5165263;28;20046;-31
2022/01/10 06:03:52;;;;;;;49.13;38.63;;;13.00;70.10;;;;;;5165353;28;20118;-29
2022/01/10 06:06:23;;;;;;;49.80;41.47;;;13.00;70.10;;;;;;5166920;28;20153;-29
2022/01/10 06:08:54;;;;;;;52.77;42.37;;;13.00;70.10;;;;;;5167758;28;20514;-29
2022/01/10 06:11:25;;;;;;;53.37;42.67;;;13.00;70.20;;;;;;5170676;28;20083;-31
2022/01/10 06:13:56;;;;;;;54.97;43.07;;;13.00;70.00;;;;;;5170434;28;20050;-29
2022/01/10 06:16:28;;;;;;;49.87;40.23;;;13.00;70.00;;;;;;5170647;28;20133;-31
2022/01/10 06:18:59;;;;;;;54.00;44.37;;;13.00;69.90;;;;;;5170975;28;20047;-29
2022/01/10 06:21:30;;;;;;;49.47;42.93;;;13.00;69.90;;;;;;5169177;28;20512;-29
2022/01/10 06:24:02;;;;;;;52.17;41.77;;;13.00;70.00;;;;;;5170602;28;20472;-31
2022/01/10 06:26:33;;;;;;;51.10;40.20;;;13.00;70.00;;;;;;5170459;28;20042;-30
2022/01/10 06:29:04;;;;;;;49.53;39.23;;;13.00;70.10;;;;;;5169055;28;20053;-31
2022/01/10 06:31:35;;;;;;;52.57;41.60;;;13.00;70.10;;;;;;5170577;28;20050;-31
2022/01/10 06:34:06;;;;;;;47.40;38.87;;;13.00;70.10;;;;;;5170365;28;20117;-30
2022/01/10 06:36:37;;;;;;;49.60;39.07;;;13.00;70.10;;;;;;5152994;28;20133;-29
2022/01/10 06:39:08;;;;;;;47.03;38.13;;;12.90;70.30;;;;;;5170024;28;20475;-30
2022/01/10 06:41:39;;;;;;;49.20;38.30;;;13.00;70.10;;;;;;5168756;28;20070;-31
2022/01/10 06:44:10;;;;;;;47.83;38.07;;;13.00;70.20;;;;;;5170179;28;20408;-31
2022/01/10 06:46:41;;;;;;;72.27;60.07;;;13.00;70.10;;;;;;5169993;28;20050;-30
2022/01/10 06:49:12;;;;;;;88.37;73.60;;;13.00;70.10;;;;;;5168669;28;20066;-29
2022/01/10 06:51:43;;;;;;;461.10;300.73;;;12.90;70.00;;;;;;5153124;28;20121;-31
2022/01/10 06:54:14;;;;;;;341.20;233.40;;;13.00;70.00;;;;;;5141440;28;20043;-29
2022/01/10 06:56:45;;;;;;;206.23;136.03;;;13.00;70.00;;;;;;5154203;28;20520;-31
2022/01/10 06:59:16;;;;;;;238.43;142.63;;;13.00;69.90;;;;;;5159729;28;20050;-30
2022/01/10 07:01:47;;;;;;;253.30;143.77;;;13.00;70.00;;;;;;5148470;28;20125;-30
2022/01/10 07:04:20;;;;;;;262.17;146.07;;;13.00;70.00;;;;;;5157076;28;20042;-30
2022/01/10 07:06:50;;;;;;;188.03;111.87;;;13.00;70.00;;;;;;5152436;28;20062;-30
2022/01/10 07:09:24;;;;;;;155.53;95.70;;;13.00;70.00;;;;;;5151477;28;20054;-29
2022/01/10 07:11:55;;;;;;;276.83;153.60;;;13.00;70.00;;;;;;5154310;28;20479;-30
2022/01/10 07:14:28;;;;;;;375.23;201.63;;;12.90;70.00;;;;;;5156525;28;20059;-30
2022/01/10 07:16:59;;;;;;;286.10;153.05;;;12.90;70.00;;;;;;5154463;28;20035;-30
2022/01/10 07:19:31;;;;;;;122.90;75.07;;;13.00;69.90;;;;;;5155148;28;20075;-31
2022/01/10 07:22:01;;;;;;;131.17;74.30;;;12.90;69.90;;;;;;5132037;28;20531;-30
2022/01/10 07:24:33;;;;;;;53.50;40.67;;;12.90;69.90;;;;;;5155954;28;20129;-31
2022/01/10 07:27:04;;;;;;;53.87;42.03;;;12.90;69.90;;;;;;5158946;28;20054;-31
2022/01/10 07:29:35;;;;;;;106.07;64.27;;;12.90;70.10;;;;;;5154286;28;20062;-29
2022/01/10 07:32:07;;;;;;;65.90;46.93;;;12.90;70.10;;;;;;5157121;28;20053;-30
2022/01/10 07:34:38;;;;;;;57.83;44.27;;;12.90;70.30;;;;;;5148003;28;20058;-30
2022/01/10 07:37:09;;;;;;;76.10;50.93;;;12.90;70.30;;;;;;5156918;28;20053;-30
2022/01/10 07:39:40;;;;;;;97.53;59.90;;;12.90;70.40;;;;;;5154838;28;20047;-31
2022/01/10 07:42:11;;;;;;;208.53;107.77;;;12.90;70.40;;;;;;5149409;28;20061;-30
2022/01/10 07:44:42;;;;;;;194.13;101.97;;;12.90;70.50;;;;;;5158251;28;20118;-29
2022/01/10 07:47:16;;;;;;;234.67;118.17;;;12.90;70.80;;;;;;5152049;28;20474;-30
2022/01/10 07:49:47;;;;;;;279.60;138.07;;;12.80;71.00;;;;;;5159570;28;20150;-31
2022/01/10 07:52:18;;;;;;;188.03;99.87;;;12.80;71.00;;;;;;5154108;28;20460;-29
2022/01/10 07:54:51;;;;;;;226.23;115.13;;;12.80;71.20;;;;;;5138528;28;20042;-30
2022/01/10 07:57:22;;;;;;;142.23;73.97;;;12.80;71.20;;;;;;5154452;28;20079;-31
2022/01/10 07:59:55;;;;;;;107.33;62.50;;;12.80;71.20;;;;;;5151208;28;20043;-29
2022/01/10 08:02:27;;;;;;;103.03;62.10;;;12.80;71.20;;;;;;5151057;28;20050;-31
2022/01/10 08:04:59;;;;;;;96.13;61.93;;;12.80;71.30;;;;;;5161347;28;20411;-31
2022/01/10 08:07:33;;;;;;;195.47;109.13;;;12.80;71.40;;;;;;5155395;28;20125;-29
2022/01/10 08:10:04;;;;;;;95.53;58.87;;;12.90;71.50;;;;;;5153084;28;20464;-30
2022/01/10 08:12:35;;;;;;;111.60;67.93;;;12.80;71.40;;;;;;5149832;28;20042;-31
2022/01/10 08:15:08;;;;;;;176.13;102.63;;;12.90;71.40;;;;;;5155397;28;20055;-28
2022/01/10 08:17:39;;;;;;;118.57;71.67;;;12.90;71.20;;;;;;5155803;28;20043;-31
2022/01/10 08:20:12;;;;;;;102.63;66.37;;;12.90;71.30;;;;;;5148991;28;20449;-28
2022/01/10 08:22:43;;;;;;;130.13;77.05;;;12.90;71.40;;;;;;5155902;28;20073;-30
2022/01/10 08:25:14;;;;;;;74.77;51.30;;;12.90;71.30;;;;;;5151080;28;20129;-30
2022/01/10 08:27:45;;;;;;;84.13;58.43;;;12.90;71.20;;;;;;5150333;28;20560;-30
2022/01/10 08:30:16;;;;;;;102.93;65.63;;;12.90;71.10;;;;;;5148048;28;20121;-30
2022/01/10 08:32:50;;;;;;;89.60;59.63;;;12.90;71.10;;;;;;5153421;28;20047;-31
2022/01/10 08:35:21;;;;;;;101.80;67.20;;;12.90;71.00;;;;;;5150433;28;20050;-31
2022/01/10 08:37:52;;;;;;;117.87;79.10;;;12.90;71.10;;;;;;5156133;28;20046;-32
2022/01/10 08:40:23;;;;;;;105.63;72.37;;;12.90;71.20;;;;;;5147948;28;20054;-30
2022/01/10 08:42:54;;;;;;;95.67;64.57;;;12.90;71.10;;;;;;5155243;28;20082;-29
2022/01/10 08:45:26;;;;;;;90.73;64.73;;;13.00;71.00;;;;;;5129847;28;20051;-30
2022/01/10 08:47:57;;;;;;;72.40;53.97;;;13.10;71.10;;;;;;5131624;28;20489;-29
2022/01/10 08:50:28;;;;;;;73.87;57.53;;;13.10;71.00;;;;;;5150554;28;20141;-29
2022/01/10 08:53:04;;;;;;;78.17;57.73;;;13.10;71.10;;;;;;5153624;28;20038;-30
2022/01/10 08:55:35;;;;;;;64.77;51.47;;;13.10;71.20;;;;;;5150801;28;20441;-30
2022/01/10 08:58:06;;;;;;;117.60;105.07;;;13.10;71.40;;;;;;5153358;28;20082;-29
2022/01/10 09:00:37;;;;;;;119.60;100.93;;;13.10;71.40;;;;;;5151732;28;20527;-29
2022/01/10 09:03:08;;;;;;;58.30;49.80;;;13.00;71.60;;;;;;5141390;28;20054;-30
2022/01/10 09:05:39;;;;;;;57.40;49.20;;;13.10;72.20;;;;;;5148723;28;20046;-28
2022/01/10 09:08:10;;;;;;;57.90;50.47;;;13.00;71.60;;;;;;5153735;28;20057;-31
2022/01/10 09:10:41;;;;;;;51.17;43.13;;;13.10;71.50;;;;;;5148779;28;20117;-30
2022/01/10 09:13:12;;;;;;;51.10;41.67;;;13.10;71.50;;;;;;5148374;28;20042;-30
2022/01/10 09:15:43;;;;;;;60.10;49.87;;;13.10;71.70;;;;;;5143457;28;20047;-29
2022/01/10 09:18:14;;;;;;;55.17;44.00;;;13.10;71.80;;;;;;5152317;28;20061;-29
2022/01/10 09:20:45;;;;;;;50.97;41.93;;;13.10;71.90;;;;;;5154756;28;20058;-30
2022/01/10 09:23:16;;;;;;;58.03;43.60;;;13.10;72.00;;;;;;5148194;28;20566;-29
2022/01/10 09:25:49;;;;;;;105.00;75.37;;;13.00;72.30;;;;;;5147241;28;20492;-29
2022/01/10 09:28:20;;;;;;;74.60;58.22;;;13.10;72.40;;;;;;5146552;28;20046;-29
2022/01/10 09:30:51;;;;;;;53.50;41.30;;;13.00;72.50;;;;;;5147283;28;20102;-29
2022/01/10 09:33:22;;;;;;;55.57;42.87;;;13.10;72.50;;;;;;5146859;28;20117;-30
2022/01/10 09:35:54;;;;;;;56.33;46.00;;;13.00;72.40;;;;;;5145608;28;20046;-29
2022/01/10 09:38:24;;;;;;;51.07;39.43;;;13.00;72.40;;;;;;5146950;28;20134;-30
2022/01/10 09:40:56;;;;;;;46.20;35.00;;;13.00;72.50;;;;;;5146495;28;20047;-28
2022/01/10 09:43:27;;;;;;;41.33;32.90;;;13.00;72.80;;;;;;5145601;28;20370;-28
2022/01/10 09:45:59;;;;;;;46.90;35.63;;;13.00;72.70;;;;;;5146734;28;20068;-29
2022/01/10 09:48:38;;;;;;;60.73;44.37;;;12.90;72.60;;;;;;5129427;28;20046;-30
2022/01/10 09:51:13;;;;;;;46.38;34.85;;;13.00;72.60;;;;;;5114873;28;20078;-30
2022/01/10 09:53:43;;;;;;;40.33;33.33;;;13.00;72.80;;;;;;5145552;28;20396;-31
2022/01/10 09:56:15;;;;;;;56.63;43.73;;;12.90;72.60;;;;;;5146613;28;20043;-28
2022/01/10 09:58:46;;;;;;;53.47;41.73;;;12.90;72.60;;;;;;5145736;28;20047;-31
2022/01/10 10:01:18;;;;;;;44.83;33.13;;;12.90;72.80;;;;;;5145361;28;20046;-28
2022/01/10 10:03:49;;;;;;;39.97;32.17;;;12.90;72.90;;;;;;5146586;28;20552;-31
2022/01/10 10:06:20;;;;;;;41.20;32.13;;;12.90;72.80;;;;;;5146436;28;20053;-30
2022/01/10 10:08:51;;;;;;;40.90;31.10;;;12.80;72.80;;;;;;5146364;28;20046;-31
2022/01/10 10:11:22;;;;;;;38.63;30.03;;;12.80;72.80;;;;;;5149673;28;20050;-31
2022/01/10 10:13:55;;;;;;;42.20;35.23;;;12.80;72.70;;;;;;5154708;28;20062;-29
2022/01/10 10:16:26;;;;;;;39.25;30.25;;;12.80;72.80;;;;;;5152603;28;20133;-29
2022/01/10 10:18:58;;;;;;;37.73;31.13;;;12.90;72.90;;;;;;5157857;28;20058;-30
2022/01/10 10:21:30;;;;;;;41.23;34.37;;;13.00;72.90;;;;;;5146762;28;20046;-29
2022/01/10 10:24:04;;;;;;;44.13;33.47;;;12.90;72.80;;;;;;5153101;28;20050;-30
2022/01/10 10:26:35;;;;;;;43.33;34.50;;;13.00;73.00;;;;;;5149457;28;20049;-29
2022/01/10 10:29:06;;;;;;;41.80;32.30;;;13.00;73.00;;;;;;5153711;28;20431;-30
2022/01/10 10:31:42;;;;;;;40.10;31.33;;;12.90;72.90;;;;;;5146203;28;20092;-31
2022/01/10 10:34:20;;;;;;;40.43;28.97;;;13.00;72.80;;;;;;5153042;28;20045;-29
2022/01/10 10:37:07;;;;;;;41.20;29.77;;;12.90;72.80;;;;;;5153170;28;20046;-29
2022/01/10 10:39:44;;;;;;;41.77;30.83;;;12.90;72.90;;;;;;5150357;28;20174;-30
2022/01/10 10:42:16;;;;;;;41.77;31.13;;;12.90;73.00;;;;;;5155783;28;20047;-29
2022/01/10 10:44:47;;;;;;;39.80;30.57;;;12.90;72.80;;;;;;5149960;28;20372;-31
2022/01/10 10:47:20;;;;;;;44.77;33.27;;;12.90;73.00;;;;;;5154441;28;20057;-29
2022/01/10 10:49:56;;;;;;;44.00;32.10;;;12.90;73.00;;;;;;5149560;28;20073;-28
2022/01/10 10:52:35;;;;;;;40.13;29.50;;;12.90;73.10;;;;;;5151572;28;20054;-30
2022/01/10 10:55:08;;;;;;;43.00;30.97;;;12.90;73.10;;;;;;5163390;28;20052;-30
2022/01/10 10:57:40;;;;;;;;;;;12.90;73.10;;;;;;5169160;28;20085;-29
2022/01/10 11:00:12;;;;;;;39.07;27.73;;;12.90;73.20;;;;;;5185273;28;19921;-29
2022/01/10 11:02:44;;;;;;;39.75;29.52;;;12.80;73.10;;;;;;5152640;28;20043;-30
2022/01/10 11:05:19;;;;;;;42.70;32.50;;;12.80;73.00;;;;;;5168692;28;20042;-29
2022/01/10 11:07:52;;;;;;;38.93;29.33;;;12.80;73.00;;;;;;5169922;28;20488;-29
2022/01/10 11:10:24;;;;;;;42.70;32.63;;;12.80;73.30;;;;;;5170113;28;20047;-30
2022/01/10 11:12:56;;;;;;;39.43;29.87;;;12.80;73.30;;;;;;5169456;28;20134;-29
2022/01/10 11:15:27;;;;;;;38.10;28.67;;;12.80;73.40;;;;;;5168161;28;20050;-37
2022/01/10 11:18:02;;;;;;;39.27;30.27;;;12.80;73.30;;;;;;5168407;28;20515;-31
2022/01/10 11:20:44;;;;;;;34.87;28.43;;;12.80;73.30;;;;;;5169300;28;20042;-30
2022/01/10 11:23:16;;;;;;;39.53;31.52;;;12.80;73.30;;;;;;5168229;28;20046;-29
2022/01/10 11:25:50;;;;;;;42.50;31.73;;;12.80;73.10;;;;;;5169303;28;20046;-31
2022/01/10 11:28:23;;;;;;;48.00;37.33;;;12.70;72.90;;;;;;5169350;28;20046;-31
2022/01/10 11:31:00;;;;;;;40.17;31.77;;;12.70;72.80;;;;;;5168126;28;20046;-30
2022/01/10 11:33:36;;;;;;;44.73;32.97;;;12.70;72.90;;;;;;5168223;28;20450;-28
2022/01/10 11:36:08;;;;;;;42.57;33.07;;;12.70;73.10;;;;;;5168218;28;20057;-30
2022/01/10 11:38:50;;;;;;;39.97;31.80;;;12.70;73.00;;;;;;5152603;28;20046;-32
2022/01/10 11:41:23;;;;;;;44.93;33.23;;;12.70;72.80;;;;;;5168024;28;20058;-29
2022/01/10 11:43:56;;;;;;;46.40;36.57;;;12.70;72.60;;;;;;5169059;28;20048;-29
2022/01/10 11:46:33;;;;;;;;;;;12.80;72.40;;;;;;5169542;28;20125;-29
2022/01/10 11:49:18;;;;;;;45.00;34.60;;;12.80;72.20;;;;;;5167791;28;20429;-28
2022/01/10 11:51:52;;;;;;;44.83;33.70;;;12.80;72.10;;;;;;5168877;28;20046;-31
2022/01/10 11:54:26;;;;;;;40.17;30.03;;;12.80;72.20;;;;;;5168618;28;20476;-31
2022/01/10 11:57:11;;;;;;;41.30;31.70;;;12.80;71.90;;;;;;5110614;29;20537;-31
2022/01/10 11:59:46;;;;;;;40.40;31.87;;;12.90;72.00;;;;;;5110686;29;20055;-29
2022/01/10 12:02:18;;;;;;;40.77;31.30;;;12.90;71.80;;;;;;5110540;29;20047;-29
2022/01/10 12:04:51;;;;;;;41.03;31.80;;;12.90;71.80;;;;;;5110302;28;20549;-31
2022/01/10 12:07:22;;;;;;;44.47;32.78;;;12.90;71.80;;;;;;5125834;29;20110;-30
2022/01/10 12:09:54;;;;;;;40.43;31.10;;;12.90;71.80;;;;;;5094867;29;20564;-31
2022/01/10 12:12:27;;;;;;;43.90;33.33;;;12.90;71.70;;;;;;5125843;28;20055;-31
2022/01/10 12:14:58;;;;;;;40.63;30.57;;;12.90;71.40;;;;;;5125987;29;20066;-31
2022/01/10 12:17:33;;;;;;;42.57;31.03;;;12.90;71.40;;;;;;5126364;29;20059;-28
2022/01/10 12:20:08;;;;;;;39.97;31.13;;;12.90;71.30;;;;;;5110645;29;20055;-31
2022/01/10 12:22:39;;;;;;;45.17;33.27;;;12.90;71.20;;;;;;5125848;29;20501;-29
2022/01/10 12:25:11;;;;;;;42.07;32.50;;;13.00;71.20;;;;;;5109979;29;20513;-31
2022/01/10 12:27:42;;;;;;;38.67;29.93;;;13.00;71.20;;;;;;5133849;28;20101;-31
2022/01/10 12:30:13;;;;;;;38.87;29.23;;;13.00;71.00;;;;;;5166829;28;20050;-31
2022/01/10 12:32:45;;;;;;;41.03;31.10;;;13.00;71.30;;;;;;5167587;28;20101;-31
2022/01/10 12:35:16;;;;;;;42.93;33.23;;;13.10;71.40;;;;;;5167911;28;20053;-30
2022/01/10 12:37:54;;;;;;;44.92;33.47;;;13.10;71.10;;;;;;5168718;28;20050;-30
2022/01/10 12:40:31;;;;;;;45.00;34.83;;;13.10;71.00;;;;;;5166883;28;20117;-29
2022/01/10 12:43:02;;;;;;;51.10;38.07;;;13.10;70.70;;;;;;5168214;28;20038;-31
2022/01/10 12:45:34;;;;;;;47.93;37.17;;;13.10;70.90;;;;;;5150682;28;20049;-31
2022/01/10 12:48:05;;;;;;;67.50;49.43;;;13.10;70.80;;;;;;5166778;28;20077;-29
2022/01/10 12:50:36;;;;;;;65.43;49.63;;;13.10;71.00;;;;;;5167704;28;20046;-30
2022/01/10 12:53:07;;;;;;;70.27;51.90;;;13.00;71.40;;;;;;5166571;28;20052;-28
2022/01/10 12:55:38;;;;;;;74.97;55.93;;;13.00;72.10;;;;;;5166569;28;20050;-30
2022/01/10 12:58:09;;;;;;;69.87;51.10;;;13.00;71.90;;;;;;5167663;28;20054;-31